Miraero Ace — 3FIH4 — position and weather

sailwx.info

Track history (hours):
 
Tides and Currents Weather Stations Pressure Air Temp Water Temp Dewpoint Dewpoint Depression Visibility Wind Speed Wind Dir Waves Ship Positions

Miraero Ace

Last reported at 2015-Aug-24 00:13 UTC. Time now 2015-Sep-02 19:03 UTC.
Position N 01°11' E 103°40'.
Warning: this ship's position is 9 days out of date.

Length 229 m; draft 14.5 m.

Type: Ship. MMSI: 373216000.

Date/timePositionNaut miles runAvg speedWind from/ knotsBaromVisibWave heightAir tempDewpointWater temp
2015-Aug-24 00:13N 01°11' E 103°40'7 9.8
2015-Aug-23 23:28N 01°10' E 103°47'1011.4
2015-Aug-23 22:33N 01°14' E 103°57'1111.1
2015-Aug-23 21:32N 01°17' E 104°08'  
2015-Aug-15 05:29S 04°00' E 115°39'1010.0
2015-Aug-15 04:32S 04°05' E 115°31'1212.1
2015-Aug-15 03:33S 04°09' E 115°20'9311.3
2015-Aug-14 19:21S 04°22' E 113°48'911.8
2015-Aug-14 18:33S 04°21' E 113°39'1211.8
2015-Aug-14 17:33S 04°20' E 113°27'  
Track history (hours):
 
Tides and Currents Weather Stations Pressure Air Temp Water Temp Dewpoint Dewpoint Depression Visibility Wind Speed Wind Dir Waves Ship Positions

Miraero Ace

Last reported at 2015-Aug-24 00:13 UTC. Time now 2015-Sep-02 19:03 UTC.
Position N 01°11' E 103°40'.
Warning: this ship's position is 9 days out of date.

Length 229 m; draft 14.5 m.

Type: Ship. MMSI: 373216000.

Date/timePositionNaut miles runAvg speedWind from/ knotsBaromVisibWave heightAir tempDewpointWater temp
2015-Aug-24 00:13N 01°11' E 103°40'7 9.8
2015-Aug-23 23:28N 01°10' E 103°47'1011.4
2015-Aug-23 22:33N 01°14' E 103°57'1111.1
2015-Aug-23 21:32N 01°17' E 104°08'  
2015-Aug-15 05:29S 04°00' E 115°39'1010.0
2015-Aug-15 04:32S 04°05' E 115°31'1212.1
2015-Aug-15 03:33S 04°09' E 115°20'9311.3
2015-Aug-14 19:21S 04°22' E 113°48'911.8
2015-Aug-14 18:33S 04°21' E 113°39'1211.8
2015-Aug-14 17:33S 04°20' E 113°27'  

Dump ship's entire track history